Time;durP1;ratioP1;P1;durP2;ratioP2;P2;SDS_P1;SDS_P2;PMS_P1;PMS_P2;Temp;Humidity;BMP_temperature;BMP_pressure;BME280_temperature;BME280_humidity;BME280_pressure;Samples;Min_cycle;Max_cycle;Signal;HPM_P1;HPM_P2
2022/09/14 00:02:15;;;;;;;36.38;18.20;;;;;;;;;;4981812;28;20532;-89
2022/09/14 00:04:42;;;;;;;40.17;19.48;;;;;;;;;;4976902;28;20019;-92
2022/09/14 00:07:13;;;;;;;35.08;18.02;;;;;;;;;;5008635;23;20038;-89
2022/09/14 00:10:00;;;;;;;37.83;18.60;;;;;;;;;;5004961;28;20044;-91
2022/09/14 00:12:49;;;;;;;38.90;19.63;;;;;;;;;;5008666;28;20025;-91
2022/09/14 00:18:06;;;;;;;42.50;20.03;;;;;;;;;;5009728;28;20026;-90
2022/09/14 00:20:41;;;;;;;37.47;18.77;;;;;;;;;;5009835;28;20277;-92
2022/09/14 00:23:20;;;;;;;35.45;19.80;;;;;;;;;;5016727;28;20036;-90
2022/09/14 00:25:57;;;;;;;45.45;21.17;;;;;;;;;;4989372;28;20028;-91
2022/09/14 00:28:25;;;;;;;38.00;19.42;;;;;;;;;;5006741;28;20609;-90
2022/09/14 00:30:51;;;;;;;42.22;20.17;;;;;;;;;;4992500;28;20088;-90
2022/09/14 00:33:20;;;;;;;40.70;20.52;;;;;;;;;;5008045;28;20033;-90
2022/09/14 00:35:45;;;;;;;48.53;21.58;;;;;;;;;;5008853;28;20029;-91
2022/09/14 00:38:12;;;;;;;58.50;25.65;;;;;;;;;;4985032;28;20017;-90
2022/09/14 00:41:01;;;;;;;59.50;25.98;;;;;;;;;;4993267;28;20018;-89
2022/09/14 00:43:29;;;;;;;68.38;26.00;;;;;;;;;;5004066;28;20554;-89
2022/09/14 00:46:00;;;;;;;63.58;25.23;;;;;;;;;;5006236;28;20210;-90
2022/09/14 00:48:33;;;;;;;58.35;25.35;;;;;;;;;;4993360;28;20034;-90
2022/09/14 00:51:01;;;;;;;61.15;26.13;;;;;;;;;;4993252;28;20026;-89
2022/09/14 00:53:32;;;;;;;60.38;27.33;;;;;;;;;;5010718;28;20026;-89
2022/09/14 00:56:08;;;;;;;68.80;27.13;;;;;;;;;;4990735;28;20026;-89
2022/09/14 00:59:06;;;;;;;65.13;26.83;;;;;;;;;;5010210;28;20443;-89
2022/09/14 01:01:44;;;;;;;63.00;28.15;;;;;;;;;;4969347;28;20029;-89
2022/09/14 01:04:18;;;;;;;72.90;29.90;;;;;;;;;;5010539;28;20103;-88
2022/09/14 01:07:08;;;;;;;69.50;27.25;;;;;;;;;;4986394;28;20572;-89
2022/09/14 01:09:52;;;;;;;64.43;27.27;;;;;;;;;;5014282;28;20505;-88
2022/09/14 01:12:43;;;;;;;56.17;25.02;;;;;;;;;;4984217;28;20034;-88
2022/09/14 01:15:31;;;;;;;46.92;20.08;;;;;;;;;;4989618;28;20271;-88
2022/09/14 01:18:14;;;;;;;67.20;25.10;;;;;;;;;;4987419;28;20034;-89
2022/09/14 01:21:06;;;;;;;62.28;23.98;;;;;;;;;;5010747;28;20079;-89
2022/09/14 01:23:41;;;;;;;52.95;22.80;;;;;;;;;;4986672;28;20018;-88
2022/09/14 01:26:27;;;;;;;58.40;24.00;;;;;;;;;;5004270;28;20099;-88
2022/09/14 01:29:17;;;;;;;66.47;26.83;;;;;;;;;;4988965;28;20033;-88
2022/09/14 01:32:01;;;;;;;78.18;27.35;;;;;;;;;;5009569;28;20032;-88
2022/09/14 01:34:46;;;;;;;74.55;28.42;;;;;;;;;;5003028;28;20125;-88
2022/09/14 01:37:17;;;;;;;69.13;26.92;;;;;;;;;;5009689;28;20220;-89
2022/09/14 01:39:50;;;;;;;76.18;31.67;;;;;;;;;;4991728;28;20022;-88
2022/09/14 01:42:20;;;;;;;84.88;31.75;;;;;;;;;;4995114;28;20018;-88
2022/09/14 01:44:50;;;;;;;80.78;33.05;;;;;;;;;;4991118;28;20022;-87
2022/09/14 01:47:25;;;;;;;87.10;32.88;;;;;;;;;;5011644;28;20064;-88
2022/09/14 01:49:56;;;;;;;88.10;33.47;;;;;;;;;;5014357;28;20053;-88
2022/09/14 01:52:30;;;;;;;84.38;33.13;;;;;;;;;;4991498;28;20071;-87
2022/09/14 01:58:22;;;;;;;71.88;27.92;;;;;;;;;;5010073;28;20044;-88
2022/09/14 02:00:54;;;;;;;84.95;32.30;;;;;;;;;;5013372;28;20072;-88
2022/09/14 02:03:33;;;;;;;75.45;31.30;;;;;;;;;;5005119;28;20029;-88
2022/09/14 02:06:28;;;;;;;84.35;33.00;;;;;;;;;;5013092;28;20014;-88
2022/09/14 02:08:54;;;;;;;88.35;34.97;;;;;;;;;;4997508;28;20030;-88
2022/09/14 02:11:19;;;;;;;96.30;34.75;;;;;;;;;;4991989;28;20510;-88
2022/09/14 02:13:47;;;;;;;91.28;33.70;;;;;;;;;;5006577;28;20179;-88
2022/09/14 02:16:16;;;;;;;78.63;28.75;;;;;;;;;;5011854;28;20057;-88
2022/09/14 02:18:42;;;;;;;91.50;34.83;;;;;;;;;;4997362;28;20108;-89
2022/09/14 02:21:23;;;;;;;92.30;33.28;;;;;;;;;;5011773;28;20014;-88
2022/09/14 02:23:49;;;;;;;98.97;36.15;;;;;;;;;;4998598;28;20402;-87
2022/09/14 02:26:18;;;;;;;102.50;36.45;;;;;;;;;;5009130;28;20026;-88
2022/09/14 02:28:43;;;;;;;96.57;35.07;;;;;;;;;;5012594;28;20080;-88
2022/09/14 02:31:18;;;;;;;104.35;38.38;;;;;;;;;;4992366;28;20025;-86
2022/09/14 02:33:43;;;;;;;97.22;37.08;;;;;;;;;;5011844;28;20069;-87
2022/09/14 02:36:29;;;;;;;97.67;37.47;;;;;;;;;;4997807;28;20418;-87
2022/09/14 02:39:01;;;;;;;91.57;35.47;;;;;;;;;;4978597;28;20026;-87
2022/09/14 02:41:39;;;;;;;97.82;36.92;;;;;;;;;;5009111;28;20536;-87
2022/09/14 02:44:07;;;;;;;100.88;37.08;;;;;;;;;;5010860;28;20063;-87
2022/09/14 02:46:36;;;;;;;93.28;35.20;;;;;;;;;;5011990;28;20478;-87
2022/09/14 02:49:11;;;;;;;100.88;37.50;;;;;;;;;;5026798;28;20050;-87
2022/09/14 02:51:44;;;;;;;101.18;37.22;;;;;;;;;;5014441;28;20429;-87
2022/09/14 02:54:13;;;;;;;96.45;35.58;;;;;;;;;;5009223;28;20022;-86
2022/09/14 02:56:38;;;;;;;94.47;35.30;;;;;;;;;;5013223;28;20024;-87
2022/09/14 02:59:04;;;;;;;107.30;38.70;;;;;;;;;;5010418;28;20105;-87
2022/09/14 03:01:29;;;;;;;103.15;38.38;;;;;;;;;;5011881;28;20068;-87
2022/09/14 03:03:55;;;;;;;99.50;36.67;;;;;;;;;;4997821;28;20048;-87
2022/09/14 03:06:20;;;;;;;92.00;35.35;;;;;;;;;;5006738;28;20056;-87
2022/09/14 03:08:46;;;;;;;103.75;36.03;;;;;;;;;;5010131;28;20026;-86
2022/09/14 03:11:11;;;;;;;113.90;37.10;;;;;;;;;;5007237;28;20981;-87
2022/09/14 03:13:36;;;;;;;99.03;36.55;;;;;;;;;;5015595;28;20025;-87
2022/09/14 03:16:09;;;;;;;118.72;39.95;;;;;;;;;;5010593;28;20101;-87
2022/09/14 03:18:35;;;;;;;110.00;40.92;;;;;;;;;;5002246;28;20021;-88
2022/09/14 03:21:02;;;;;;;106.55;40.38;;;;;;;;;;5007451;28;20103;-86
2022/09/14 03:23:27;;;;;;;112.38;42.08;;;;;;;;;;5009417;28;20014;-87
2022/09/14 03:25:52;;;;;;;121.57;40.70;;;;;;;;;;4989427;28;20032;-87
2022/09/14 03:28:18;;;;;;;117.65;42.60;;;;;;;;;;4989117;28;20649;-87
2022/09/14 03:30:43;;;;;;;120.37;43.03;;;;;;;;;;4991476;28;20022;-87
2022/09/14 03:33:08;;;;;;;114.10;42.57;;;;;;;;;;5010635;28;21278;-87
2022/09/14 03:35:33;;;;;;;115.18;42.53;;;;;;;;;;5005667;28;20265;-87
2022/09/14 03:37:59;;;;;;;106.97;38.70;;;;;;;;;;5008911;28;20449;-87
2022/09/14 03:40:25;;;;;;;96.07;37.17;;;;;;;;;;4990941;28;20622;-87
2022/09/14 03:42:51;;;;;;;98.13;36.47;;;;;;;;;;4991069;28;20104;-87
2022/09/14 03:45:16;;;;;;;100.18;36.13;;;;;;;;;;4992412;28;20018;-87
2022/09/14 03:47:42;;;;;;;102.05;36.10;;;;;;;;;;5010127;28;20036;-87
2022/09/14 03:50:08;;;;;;;98.55;37.45;;;;;;;;;;4991099;28;20018;-86
2022/09/14 03:52:34;;;;;;;98.82;37.97;;;;;;;;;;4994793;28;20017;-87
2022/09/14 03:54:59;;;;;;;87.22;35.20;;;;;;;;;;4991914;28;20025;-87
2022/09/14 03:57:24;;;;;;;84.07;32.38;;;;;;;;;;5009387;28;20022;-87
2022/09/14 03:59:49;;;;;;;90.43;34.35;;;;;;;;;;5010962;28;20025;-86
2022/09/14 04:02:15;;;;;;;87.17;33.37;;;;;;;;;;4990106;28;20061;-87
2022/09/14 04:04:40;;;;;;;81.20;33.47;;;;;;;;;;5011003;28;20337;-87
2022/09/14 04:07:06;;;;;;;87.20;31.43;;;;;;;;;;5003452;28;20311;-88
2022/09/14 04:09:31;;;;;;;93.72;34.65;;;;;;;;;;4998789;28;20280;-87
2022/09/14 04:11:56;;;;;;;91.85;34.13;;;;;;;;;;5002701;28;20398;-87
2022/09/14 04:14:22;;;;;;;93.70;35.60;;;;;;;;;;4992345;28;20022;-87
2022/09/14 04:16:47;;;;;;;94.07;37.22;;;;;;;;;;4994545;28;20312;-87
2022/09/14 04:19:13;;;;;;;99.55;37.03;;;;;;;;;;4991329;28;20022;-86
2022/09/14 04:21:38;;;;;;;100.07;36.45;;;;;;;;;;5002056;28;20033;-87
2022/09/14 04:24:03;;;;;;;109.03;38.10;;;;;;;;;;5008360;28;20058;-86
2022/09/14 04:26:29;;;;;;;93.40;34.10;;;;;;;;;;5007956;28;20038;-86
2022/09/14 04:28:55;;;;;;;90.97;33.47;;;;;;;;;;5010193;28;20113;-87
2022/09/14 04:31:20;;;;;;;84.22;30.67;;;;;;;;;;5006081;28;20029;-87
2022/09/14 04:33:48;;;;;;;75.78;30.48;;;;;;;;;;5008243;28;20021;-88
2022/09/14 04:36:14;;;;;;;81.32;31.05;;;;;;;;;;5001903;28;20508;-88
2022/09/14 04:38:40;;;;;;;75.15;30.17;;;;;;;;;;4992727;28;20057;-88
2022/09/14 04:41:10;;;;;;;83.90;31.55;;;;;;;;;;5007559;28;20042;-88
2022/09/14 04:43:35;;;;;;;79.73;31.90;;;;;;;;;;5009602;28;20014;-87
2022/09/14 04:46:01;;;;;;;90.88;33.30;;;;;;;;;;4989342;28;20651;-89
2022/09/14 04:48:27;;;;;;;73.75;30.80;;;;;;;;;;5008959;28;20426;-88
2022/09/14 04:50:52;;;;;;;85.85;32.40;;;;;;;;;;5002877;28;20036;-88
2022/09/14 04:53:18;;;;;;;85.67;33.00;;;;;;;;;;5008977;28;20068;-87
2022/09/14 04:55:43;;;;;;;96.90;35.53;;;;;;;;;;5007139;28;20368;-87
2022/09/14 04:58:08;;;;;;;79.88;29.77;;;;;;;;;;5009324;28;20037;-88
2022/09/14 05:00:34;;;;;;;59.30;25.20;;;;;;;;;;4991288;28;20026;-87
2022/09/14 05:03:00;;;;;;;54.58;23.80;;;;;;;;;;5006953;28;20464;-87
2022/09/14 05:05:25;;;;;;;53.17;24.02;;;;;;;;;;4994254;28;20049;-89
2022/09/14 05:07:50;;;;;;;54.03;23.40;;;;;;;;;;5008090;28;20084;-88
2022/09/14 05:10:16;;;;;;;48.80;20.88;;;;;;;;;;5010973;28;20050;-88
2022/09/14 05:12:41;;;;;;;45.83;21.10;;;;;;;;;;5004681;28;20045;-87
2022/09/14 05:15:06;;;;;;;65.72;22.90;;;;;;;;;;5007613;28;20034;-87
2022/09/14 05:17:35;;;;;;;51.13;22.13;;;;;;;;;;4990514;28;20108;-88
2022/09/14 05:20:01;;;;;;;52.10;22.85;;;;;;;;;;4991224;28;20018;-88
2022/09/14 05:22:26;;;;;;;55.63;22.33;;;;;;;;;;4989582;28;20601;-89
2022/09/14 05:24:51;;;;;;;49.92;22.50;;;;;;;;;;4997980;28;20025;-88
2022/09/14 05:27:16;;;;;;;58.95;24.33;;;;;;;;;;5006439;28;20025;-88
2022/09/14 05:29:42;;;;;;;58.78;24.55;;;;;;;;;;5009740;28;20022;-88
2022/09/14 05:32:08;;;;;;;60.03;24.02;;;;;;;;;;4991334;28;20072;-88
2022/09/14 05:34:33;;;;;;;64.35;25.73;;;;;;;;;;4990673;28;20557;-87
2022/09/14 05:36:58;;;;;;;86.35;26.25;;;;;;;;;;5007883;28;20025;-87
2022/09/14 05:39:24;;;;;;;71.97;26.60;;;;;;;;;;4992450;28;20116;-89
2022/09/14 05:41:49;;;;;;;79.35;26.30;;;;;;;;;;5009921;28;20718;-87
2022/09/14 05:44:14;;;;;;;75.28;26.88;;;;;;;;;;4999091;28;20569;-89
2022/09/14 05:46:39;;;;;;;91.85;28.65;;;;;;;;;;5010515;28;20084;-88
2022/09/14 05:49:05;;;;;;;77.30;27.00;;;;;;;;;;5006951;28;20030;-89
2022/09/14 05:51:30;;;;;;;75.25;27.08;;;;;;;;;;5008184;28;20029;-88
2022/09/14 05:53:56;;;;;;;81.03;29.45;;;;;;;;;;5002790;28;20053;-87
2022/09/14 05:56:22;;;;;;;72.72;27.17;;;;;;;;;;5004280;28;20117;-88
2022/09/14 05:58:48;;;;;;;80.82;29.88;;;;;;;;;;4985761;28;20057;-87
2022/09/14 06:01:15;;;;;;;72.28;27.25;;;;;;;;;;5009411;28;20443;-88
2022/09/14 06:03:41;;;;;;;68.43;25.88;;;;;;;;;;5002903;28;20022;-88
2022/09/14 06:06:06;;;;;;;60.95;23.95;;;;;;;;;;4997845;28;20034;-88
2022/09/14 06:08:32;;;;;;;62.67;23.55;;;;;;;;;;5002619;28;20430;-88
2022/09/14 06:11:01;;;;;;;65.93;25.02;;;;;;;;;;5009253;28;20067;-87
2022/09/14 06:13:27;;;;;;;65.18;26.63;;;;;;;;;;5005002;28;20493;-88
2022/09/14 06:15:52;;;;;;;66.03;26.02;;;;;;;;;;4991313;28;20057;-87
2022/09/14 06:18:17;;;;;;;49.95;20.75;;;;;;;;;;5006401;28;20359;-88
2022/09/14 06:20:52;;;;;;;40.15;17.58;;;;;;;;;;4991444;28;20033;-88
2022/09/14 06:23:17;;;;;;;36.10;15.38;;;;;;;;;;4987349;28;20025;-87
2022/09/14 06:25:42;;;;;;;29.50;14.55;;;;;;;;;;5005682;28;20014;-88
2022/09/14 06:28:28;;;;;;;37.90;14.95;;;;;;;;;;5004625;28;20113;-91
2022/09/14 06:30:53;;;;;;;30.50;14.13;;;;;;;;;;4987517;28;20501;-85
2022/09/14 06:33:19;;;;;;;29.58;13.32;;;;;;;;;;5010026;28;20029;-88
2022/09/14 06:35:57;;;;;;;29.08;13.25;;;;;;;;;;4988775;28;20672;-89
2022/09/14 06:38:22;;;;;;;26.85;13.40;;;;;;;;;;5009663;28;20018;-86
2022/09/14 06:40:52;;;;;;;25.15;13.18;;;;;;;;;;5009495;28;20025;-86
2022/09/14 06:43:17;;;;;;;25.73;11.85;;;;;;;;;;5011888;28;20018;-86
2022/09/14 06:45:42;;;;;;;26.65;12.50;;;;;;;;;;5008609;28;20025;-86
2022/09/14 06:48:07;;;;;;;22.60;12.30;;;;;;;;;;5002247;28;20478;-84
2022/09/14 06:50:32;;;;;;;29.10;12.17;;;;;;;;;;5010010;28;20304;-85
2022/09/14 06:52:59;;;;;;;26.17;12.33;;;;;;;;;;5008585;28;20265;-85
2022/09/14 06:55:24;;;;;;;20.30;11.45;;;;;;;;;;5006884;28;20284;-86
2022/09/14 06:57:49;;;;;;;29.95;11.68;;;;;;;;;;5006115;28;20037;-86
2022/09/14 07:00:15;;;;;;;32.13;12.07;;;;;;;;;;5010318;28;20014;-86
2022/09/14 07:02:40;;;;;;;25.67;11.70;;;;;;;;;;4990307;28;20064;-85
2022/09/14 07:05:05;;;;;;;26.15;11.80;;;;;;;;;;5011102;28;20014;-85
2022/09/14 07:07:30;;;;;;;22.27;10.93;;;;;;;;;;5004599;28;20076;-86
2022/09/14 07:09:55;;;;;;;20.05;9.93;;;;;;;;;;5001566;28;20020;-86
2022/09/14 07:12:21;;;;;;;22.00;10.80;;;;;;;;;;4988337;28;20044;-86
2022/09/14 07:14:46;;;;;;;17.30;10.60;;;;;;;;;;5011655;28;20268;-85
2022/09/14 07:17:13;;;;;;;18.55;10.52;;;;;;;;;;5011004;28;20344;-85
2022/09/14 07:19:39;;;;;;;14.73;9.18;;;;;;;;;;4995160;28;20041;-85
2022/09/14 07:22:04;;;;;;;17.67;9.50;;;;;;;;;;5008850;28;20418;-86
2022/09/14 07:24:29;;;;;;;20.00;8.60;;;;;;;;;;5007667;28;20041;-86
2022/09/14 07:26:54;;;;;;;21.73;8.40;;;;;;;;;;4992512;28;20510;-86
2022/09/14 07:29:20;;;;;;;18.73;8.25;;;;;;;;;;4989796;28;20292;-85
2022/09/14 07:31:47;;;;;;;14.07;7.57;;;;;;;;;;4991449;28;20030;-85
2022/09/14 07:34:12;;;;;;;16.25;7.60;;;;;;;;;;5009026;28;20034;-86
2022/09/14 07:36:38;;;;;;;15.88;7.10;;;;;;;;;;5008574;28;20044;-86
2022/09/14 07:39:04;;;;;;;13.90;7.13;;;;;;;;;;4990584;28;20390;-85
2022/09/14 07:41:31;;;;;;;11.20;6.75;;;;;;;;;;5010201;28;20018;-85
2022/09/14 07:43:59;;;;;;;25.40;8.80;;;;;;;;;;5006286;28;20017;-84
2022/09/14 07:46:24;;;;;;;14.50;6.97;;;;;;;;;;4991256;28;20036;-86
2022/09/14 07:48:57;;;;;;;10.57;6.47;;;;;;;;;;5007817;28;20037;-86
2022/09/14 07:51:22;;;;;;;12.88;6.30;;;;;;;;;;5004391;28;20018;-85
2022/09/14 07:53:48;;;;;;;11.38;6.38;;;;;;;;;;5003685;28;20018;-84
2022/09/14 07:56:15;;;;;;;11.32;6.25;;;;;;;;;;4992273;28;20050;-86
2022/09/14 07:58:41;;;;;;;9.77;6.10;;;;;;;;;;5009661;28;20018;-86
2022/09/14 08:01:07;;;;;;;7.90;5.60;;;;;;;;;;5008826;28;20040;-85
2022/09/14 08:03:33;;;;;;;10.32;5.53;;;;;;;;;;4993842;28;20014;-86
2022/09/14 08:06:02;;;;;;;10.43;5.22;;;;;;;;;;4989214;28;20113;-85
2022/09/14 08:08:32;;;;;;;10.20;4.40;;;;;;;;;;5007359;28;20121;-86
2022/09/14 08:11:04;;;;;;;10.80;5.03;;;;;;;;;;5009323;28;20070;-87
2022/09/14 08:13:30;;;;;;;9.85;4.88;;;;;;;;;;5003816;28;20095;-86
2022/09/14 08:15:57;;;;;;;8.50;4.30;;;;;;;;;;5002633;28;20486;-85
2022/09/14 08:18:23;;;;;;;10.82;4.88;;;;;;;;;;4998010;28;20030;-85
2022/09/14 08:20:48;;;;;;;9.57;5.20;;;;;;;;;;5008942;28;20030;-86
2022/09/14 08:23:13;;;;;;;14.10;4.85;;;;;;;;;;5000427;28;20273;-86
2022/09/14 08:25:38;;;;;;;12.93;5.28;;;;;;;;;;5003686;28;20019;-86
2022/09/14 08:28:04;;;;;;;9.20;5.00;;;;;;;;;;5007644;28;20549;-86
2022/09/14 08:30:29;;;;;;;11.90;5.03;;;;;;;;;;5003889;28;20280;-86
2022/09/14 08:32:54;;;;;;;12.45;5.47;;;;;;;;;;4992067;28;20017;-85
2022/09/14 08:35:20;;;;;;;10.10;5.23;;;;;;;;;;5007324;28;20030;-86
2022/09/14 08:37:46;;;;;;;10.90;5.88;;;;;;;;;;4992311;28;20080;-85
2022/09/14 08:40:12;;;;;;;13.50;6.40;;;;;;;;;;5007184;28;20018;-85
2022/09/14 08:42:37;;;;;;;12.23;5.50;;;;;;;;;;4998921;28;20022;-85
2022/09/14 08:45:04;;;;;;;9.38;4.90;;;;;;;;;;5033758;28;20389;-85
2022/09/14 08:47:37;;;;;;;11.43;5.50;;;;;;;;;;5014718;28;20018;-85
2022/09/14 08:50:05;;;;;;;12.38;5.38;;;;;;;;;;5018048;28;20002;-84
2022/09/14 08:52:42;;;;;;;12.18;5.70;;;;;;;;;;5027186;28;20013;-85
2022/09/14 08:55:30;;;;;;;11.50;6.05;;;;;;;;;;5023242;28;20474;-85
2022/09/14 08:58:20;;;;;;;10.52;5.93;;;;;;;;;;4993402;28;20056;-86
2022/09/14 09:00:54;;;;;;;8.55;4.80;;;;;;;;;;4990360;28;20375;-86
2022/09/14 09:03:19;;;;;;;11.82;5.13;;;;;;;;;;5005825;28;20486;-86
2022/09/14 09:05:51;;;;;;;10.85;5.07;;;;;;;;;;5003950;28;20037;-86
2022/09/14 09:08:20;;;;;;;8.82;4.45;;;;;;;;;;5009536;28;20079;-86
2022/09/14 09:10:45;;;;;;;8.18;4.25;;;;;;;;;;5003372;28;20033;-86
2022/09/14 09:13:13;;;;;;;9.85;5.05;;;;;;;;;;5006627;28;20397;-86
2022/09/14 09:15:42;;;;;;;9.73;4.82;;;;;;;;;;5006022;28;20389;-85
2022/09/14 09:18:11;;;;;;;10.98;5.05;;;;;;;;;;5005443;28;20029;-86
2022/09/14 09:20:39;;;;;;;7.70;4.32;;;;;;;;;;5008759;28;20033;-85
2022/09/14 09:23:23;;;;;;;11.15;4.57;;;;;;;;;;5007112;28;20104;-86
2022/09/14 09:26:00;;;;;;;8.55;4.00;;;;;;;;;;5008646;28;20018;-85
2022/09/14 09:28:27;;;;;;;6.85;4.00;;;;;;;;;;5007140;28;20018;-85
2022/09/14 09:30:53;;;;;;;9.98;5.10;;;;;;;;;;5003827;28;20496;-86
2022/09/14 09:33:20;;;;;;;14.88;5.32;;;;;;;;;;5005155;28;20020;-87
2022/09/14 09:35:45;;;;;;;12.35;5.38;;;;;;;;;;4988248;28;20022;-85
2022/09/14 09:38:15;;;;;;;10.50;5.22;;;;;;;;;;5004493;28;20597;-86
2022/09/14 09:40:44;;;;;;;10.30;5.32;;;;;;;;;;4989471;28;20112;-87
2022/09/14 09:43:14;;;;;;;5.45;3.95;;;;;;;;;;4990151;28;20101;-86
2022/09/14 09:45:46;;;;;;;8.35;4.80;;;;;;;;;;5005951;28;20064;-87
2022/09/14 09:48:12;;;;;;;8.48;4.97;;;;;;;;;;5006415;28;20041;-86
2022/09/14 09:50:45;;;;;;;11.93;5.95;;;;;;;;;;4988908;28;20113;-87
2022/09/14 09:53:13;;;;;;;11.50;4.90;;;;;;;;;;5011549;28;20767;-87
2022/09/14 09:55:39;;;;;;;8.20;5.18;;;;;;;;;;5008985;28;20026;-86
2022/09/14 09:58:22;;;;;;;12.73;5.55;;;;;;;;;;5009613;28;20776;-87
2022/09/14 10:00:54;;;;;;;9.90;4.78;;;;;;;;;;5009399;28;20022;-87
2022/09/14 10:03:26;;;;;;;7.03;4.47;;;;;;;;;;5006417;28;20700;-86
2022/09/14 10:05:58;;;;;;;10.05;4.60;;;;;;;;;;5007391;28;20022;-86
2022/09/14 10:08:24;;;;;;;8.52;4.50;;;;;;;;;;4994776;28;20022;-87
2022/09/14 10:10:50;;;;;;;7.93;3.97;;;;;;;;;;4995626;28;20013;-87
2022/09/14 10:13:26;;;;;;;7.72;4.40;;;;;;;;;;5012896;28;20052;-86
2022/09/14 10:15:51;;;;;;;8.30;3.90;;;;;;;;;;4995267;28;20014;-87
2022/09/14 10:18:17;;;;;;;10.32;4.57;;;;;;;;;;5011271;28;20493;-88
2022/09/14 10:20:42;;;;;;;10.18;5.05;;;;;;;;;;4995997;28;20064;-87
2022/09/14 10:23:14;;;;;;;7.40;4.68;;;;;;;;;;5011082;28;20033;-87
2022/09/14 10:25:39;;;;;;;9.55;4.55;;;;;;;;;;5010185;28;20056;-87
2022/09/14 10:28:04;;;;;;;10.80;3.90;;;;;;;;;;5010043;28;20073;-88
2022/09/14 10:30:33;;;;;;;9.02;4.30;;;;;;;;;;4993185;28;20842;-87
2022/09/14 10:33:03;;;;;;;6.65;3.97;;;;;;;;;;5007335;28;20026;-86
2022/09/14 10:35:34;;;;;;;10.63;4.40;;;;;;;;;;5011901;28;20018;-87
2022/09/14 10:38:06;;;;;;;7.93;4.78;;;;;;;;;;5010023;28;20041;-86
2022/09/14 10:40:43;;;;;;;10.18;4.10;;;;;;;;;;5010139;28;20022;-86
2022/09/14 10:43:11;;;;;;;7.50;3.83;;;;;;;;;;4994827;28;20164;-86
2022/09/14 10:45:43;;;;;;;7.47;4.07;;;;;;;;;;5002529;28;20037;-86
2022/09/14 10:48:16;;;;;;;7.25;4.18;;;;;;;;;;5009873;28;20022;-85
2022/09/14 10:50:41;;;;;;;10.13;4.50;;;;;;;;;;4989667;28;20749;-86
2022/09/14 10:53:27;;;;;;;11.15;4.20;;;;;;;;;;5012109;28;20018;-86
2022/09/14 10:56:09;;;;;;;10.25;4.47;;;;;;;;;;4996623;28;20105;-86
2022/09/14 10:58:46;;;;;;;8.50;4.40;;;;;;;;;;5008891;28;20506;-86
2022/09/14 11:01:11;;;;;;;8.50;4.25;;;;;;;;;;4988525;28;20053;-85
2022/09/14 11:03:55;;;;;;;6.43;4.27;;;;;;;;;;4993910;28;20014;-88
2022/09/14 11:06:36;;;;;;;9.07;4.47;;;;;;;;;;5008774;28;20888;-86
2022/09/14 11:09:19;;;;;;;5.68;3.97;;;;;;;;;;5003822;28;20026;-86
2022/09/14 11:11:53;;;;;;;6.75;3.80;;;;;;;;;;4985069;28;20763;-85
2022/09/14 11:14:21;;;;;;;7.30;4.45;;;;;;;;;;5007862;28;20026;-86
2022/09/14 11:17:04;;;;;;;12.50;4.72;;;;;;;;;;5004793;28;20121;-85
2022/09/14 11:19:56;;;;;;;9.80;4.93;;;;;;;;;;4995589;28;20429;-85
2022/09/14 11:22:24;;;;;;;8.30;4.22;;;;;;;;;;4960858;28;20069;-85
2022/09/14 11:25:10;;;;;;;8.98;4.68;;;;;;;;;;5010353;28;20057;-85
2022/09/14 11:27:41;;;;;;;5.88;4.28;;;;;;;;;;4990499;28;20064;-84
2022/09/14 11:30:10;;;;;;;7.03;4.57;;;;;;;;;;4989389;28;20038;-85
2022/09/14 11:32:44;;;;;;;6.22;4.70;;;;;;;;;;5007799;28;20030;-85
2022/09/14 11:35:09;;;;;;;10.10;5.03;;;;;;;;;;4990304;28;20424;-84
2022/09/14 11:37:38;;;;;;;6.30;4.07;;;;;;;;;;4984839;28;20022;-86
2022/09/14 11:40:23;;;;;;;10.80;4.85;;;;;;;;;;5008088;28;20343;-86
2022/09/14 11:43:18;;;;;;;6.88;4.13;;;;;;;;;;4992615;28;20490;-85
2022/09/14 11:45:57;;;;;;;11.05;4.65;;;;;;;;;;4981492;28;20050;-86
2022/09/14 11:48:26;;;;;;;6.30;3.67;;;;;;;;;;5008234;28;20022;-86
2022/09/14 11:50:56;;;;;;;8.45;4.38;;;;;;;;;;4993454;28;20281;-86
2022/09/14 11:53:23;;;;;;;6.97;4.63;;;;;;;;;;5007087;28;20498;-86
2022/09/14 11:55:49;;;;;;;4.95;3.65;;;;;;;;;;5006202;28;20033;-87
2022/09/14 11:58:19;;;;;;;5.55;4.10;;;;;;;;;;4991041;28;20086;-87
2022/09/14 12:00:48;;;;;;;4.90;3.58;;;;;;;;;;4992635;28;20502;-85
2022/09/14 12:03:13;;;;;;;9.88;3.33;;;;;;;;;;5009731;28;20017;-86
2022/09/14 12:05:39;;;;;;;4.75;3.08;;;;;;;;;;5009360;28;20064;-86
2022/09/14 12:08:23;;;;;;;4.10;2.75;;;;;;;;;;5006249;28;20029;-87
2022/09/14 12:11:07;;;;;;;3.53;2.40;;;;;;;;;;5009382;28;20064;-86
2022/09/14 12:13:33;;;;;;;2.65;2.10;;;;;;;;;;5006196;28;20117;-86
2022/09/14 12:16:03;;;;;;;2.75;2.15;;;;;;;;;;5007437;28;20045;-85
2022/09/14 12:18:28;;;;;;;;;;;;;;;;;;5008181;28;20555;-85
2022/09/14 12:21:01;;;;;;;3.28;1.90;;;;;;;;;;5008470;28;19936;-86
2022/09/14 12:23:38;;;;;;;3.47;2.13;;;;;;;;;;5004315;28;20022;-86
2022/09/14 12:26:09;;;;;;;2.97;1.90;;;;;;;;;;4990660;28;20017;-85
2022/09/14 12:28:35;;;;;;;4.88;2.78;;;;;;;;;;4990537;28;20022;-84
2022/09/14 12:31:03;;;;;;;5.13;2.47;;;;;;;;;;5007777;28;20024;-85
2022/09/14 12:33:32;;;;;;;8.43;2.40;;;;;;;;;;5006093;28;20029;-86
2022/09/14 12:36:01;;;;;;;6.22;3.03;;;;;;;;;;5005361;28;20041;-86
2022/09/14 12:38:29;;;;;;;4.13;2.90;;;;;;;;;;4989610;28;20021;-85
2022/09/14 12:41:07;;;;;;;4.93;2.88;;;;;;;;;;5006944;28;20356;-86
2022/09/14 12:43:32;;;;;;;5.93;2.40;;;;;;;;;;4992235;28;20018;-85
2022/09/14 12:46:02;;;;;;;4.53;1.90;;;;;;;;;;5009785;28;20093;-87
2022/09/14 12:48:46;;;;;;;2.55;1.80;;;;;;;;;;5008811;28;20618;-85
2022/09/14 12:51:33;;;;;;;6.25;1.98;;;;;;;;;;5009616;28;20022;-85
2022/09/14 12:54:07;;;;;;;3.10;1.65;;;;;;;;;;5001451;28;20363;-86
2022/09/14 12:56:37;;;;;;;2.92;1.30;;;;;;;;;;4991737;28;20606;-86
2022/09/14 12:59:06;;;;;;;3.05;1.58;;;;;;;;;;5009849;28;20045;-85
2022/09/14 13:01:50;;;;;;;2.90;1.52;;;;;;;;;;5008361;28;20014;-85
2022/09/14 13:04:19;;;;;;;2.30;1.50;;;;;;;;;;4991259;28;20390;-86
2022/09/14 13:06:45;;;;;;;1.88;1.33;;;;;;;;;;4991791;28;20026;-85
2022/09/14 13:09:21;;;;;;;3.90;1.60;;;;;;;;;;5009519;28;20100;-84
2022/09/14 13:12:06;;;;;;;8.18;2.50;;;;;;;;;;5009522;28;20116;-86
2022/09/14 13:14:34;;;;;;;7.13;2.60;;;;;;;;;;5009547;28;20478;-85
2022/09/14 13:17:02;;;;;;;3.60;2.67;;;;;;;;;;4999652;28;20040;-86
2022/09/14 13:19:31;;;;;;;5.82;2.63;;;;;;;;;;5009264;28;20447;-84
2022/09/14 13:21:57;;;;;;;5.60;2.28;;;;;;;;;;5010049;28;20104;-86
2022/09/14 13:24:26;;;;;;;2.30;1.90;;;;;;;;;;4992115;28;20018;-86
2022/09/14 13:26:52;;;;;;;3.75;2.47;;;;;;;;;;4991682;28;20514;-87
2022/09/14 13:29:17;;;;;;;3.53;2.00;;;;;;;;;;5008566;28;20030;-86
2022/09/14 13:31:43;;;;;;;4.78;2.00;;;;;;;;;;4990774;28;20022;-86
2022/09/14 13:34:20;;;;;;;3.00;2.00;;;;;;;;;;4991395;28;20028;-87
2022/09/14 13:36:46;;;;;;;3.53;1.70;;;;;;;;;;5008082;28;20033;-86
2022/09/14 13:39:21;;;;;;;4.10;2.03;;;;;;;;;;4991547;28;20021;-86
2022/09/14 13:41:47;;;;;;;3.47;2.10;;;;;;;;;;5007327;28;20025;-85
2022/09/14 13:44:12;;;;;;;3.38;2.00;;;;;;;;;;4991616;28;20022;-86
2022/09/14 13:46:37;;;;;;;5.75;2.17;;;;;;;;;;5008750;28;20554;-86
2022/09/14 13:49:04;;;;;;;7.63;2.83;;;;;;;;;;4990777;28;20034;-86
2022/09/14 13:51:30;;;;;;;7.30;2.17;;;;;;;;;;5008876;28;20391;-87
2022/09/14 13:53:56;;;;;;;3.00;2.15;;;;;;;;;;4991409;28;20017;-86
2022/09/14 13:56:32;;;;;;;6.07;2.47;;;;;;;;;;5006606;28;20044;-87
2022/09/14 13:59:16;;;;;;;5.65;2.10;;;;;;;;;;4991025;28;20018;-86
2022/09/14 14:01:52;;;;;;;3.05;2.25;;;;;;;;;;5006550;28;20018;-86
2022/09/14 14:04:29;;;;;;;4.10;2.58;;;;;;;;;;5000330;28;20390;-86
2022/09/14 14:07:00;;;;;;;9.45;2.90;;;;;;;;;;5008584;28;20058;-85
2022/09/14 14:09:36;;;;;;;4.57;2.85;;;;;;;;;;4990297;28;20080;-85
2022/09/14 14:12:01;;;;;;;3.85;2.83;;;;;;;;;;5008242;28;20053;-85
2022/09/14 14:14:27;;;;;;;7.32;2.47;;;;;;;;;;5007733;28;20053;-86
2022/09/14 14:17:11;;;;;;;4.00;2.45;;;;;;;;;;5008623;28;20014;-86
2022/09/14 14:19:39;;;;;;;6.90;2.75;;;;;;;;;;4991382;28;20105;-86
2022/09/14 14:22:13;;;;;;;4.95;2.53;;;;;;;;;;4991585;28;20022;-86
2022/09/14 14:24:39;;;;;;;4.18;2.10;;;;;;;;;;5006368;28;20517;-86
2022/09/14 14:27:05;;;;;;;4.22;2.65;;;;;;;;;;5003817;28;20026;-86
2022/09/14 14:29:31;;;;;;;3.50;2.25;;;;;;;;;;5005849;28;20021;-87
2022/09/14 14:31:56;;;;;;;4.15;2.53;;;;;;;;;;4991025;28;20026;-86
2022/09/14 14:34:26;;;;;;;3.70;2.22;;;;;;;;;;5007957;28;20119;-85
2022/09/14 14:36:51;;;;;;;3.75;2.50;;;;;;;;;;4990499;28;20025;-85
2022/09/14 14:39:19;;;;;;;5.72;2.67;;;;;;;;;;4990233;28;20520;-87
2022/09/14 14:41:45;;;;;;;4.53;3.08;;;;;;;;;;4986489;28;20041;-87
2022/09/14 14:44:20;;;;;;;7.05;3.15;;;;;;;;;;5006457;28;20029;-87
2022/09/14 14:46:46;;;;;;;4.47;3.00;;;;;;;;;;5007288;28;20021;-87
2022/09/14 14:49:12;;;;;;;14.27;3.78;;;;;;;;;;5008471;28;20018;-86
2022/09/14 14:51:38;;;;;;;10.25;3.53;;;;;;;;;;5007165;28;20054;-85